sensor_id;sensor_type;location;lat;lon;timestamp;P1;durP1;ratioP1;P2;durP2;ratioP2
23280;SDS011;11809;56.390;-3.266;2022-11-02T00:00:27;4.78;;;1.10;;
23280;SDS011;11809;56.390;-3.266;2022-11-02T00:02:55;2.03;;;0.95;;
23280;SDS011;11809;56.390;-3.266;2022-11-02T00:05:23;1.70;;;0.70;;
23280;SDS011;11809;56.390;-3.266;2022-11-02T00:07:51;1.98;;;0.90;;
23280;SDS011;11809;56.390;-3.266;2022-11-02T00:10:20;2.50;;;1.00;;
23280;SDS011;11809;56.390;-3.266;2022-11-02T00:12:49;2.42;;;0.70;;
23280;SDS011;11809;56.390;-3.266;2022-11-02T00:15:16;2.83;;;0.77;;
23280;SDS011;11809;56.390;-3.266;2022-11-02T00:17:45;1.63;;;0.50;;
23280;SDS011;11809;56.390;-3.266;2022-11-02T00:20:16;1.08;;;0.60;;
23280;SDS011;11809;56.390;-3.266;2022-11-02T00:22:45;1.20;;;0.68;;
23280;SDS011;11809;56.390;-3.266;2022-11-02T00:25:16;1.75;;;0.70;;
23280;SDS011;11809;56.390;-3.266;2022-11-02T00:27:45;1.55;;;0.55;;
23280;SDS011;11809;56.390;-3.266;2022-11-02T00:30:12;3.03;;;0.70;;
23280;SDS011;11809;56.390;-3.266;2022-11-02T00:32:40;1.98;;;0.70;;
23280;SDS011;11809;56.390;-3.266;2022-11-02T00:35:07;1.50;;;0.63;;
23280;SDS011;11809;56.390;-3.266;2022-11-02T00:37:34;0.85;;;0.50;;
23280;SDS011;11809;56.390;-3.266;2022-11-02T00:40:01;1.63;;;0.55;;
23280;SDS011;11809;56.390;-3.266;2022-11-02T00:42:28;0.88;;;0.60;;
23280;SDS011;11809;56.390;-3.266;2022-11-02T00:44:55;1.67;;;0.52;;
23280;SDS011;11809;56.390;-3.266;2022-11-02T00:47:22;3.00;;;0.50;;
23280;SDS011;11809;56.390;-3.266;2022-11-02T00:49:49;0.93;;;0.50;;
23280;SDS011;11809;56.390;-3.266;2022-11-02T00:52:16;0.93;;;0.45;;
23280;SDS011;11809;56.390;-3.266;2022-11-02T00:54:43;1.98;;;0.68;;
23280;SDS011;11809;56.390;-3.266;2022-11-02T00:57:10;0.93;;;0.40;;
23280;SDS011;11809;56.390;-3.266;2022-11-02T00:59:37;0.40;;;0.30;;
23280;SDS011;11809;56.390;-3.266;2022-11-02T01:02:04;0.90;;;0.40;;
23280;SDS011;11809;56.390;-3.266;2022-11-02T01:04:31;2.05;;;0.32;;
23280;SDS011;11809;56.390;-3.266;2022-11-02T01:06:58;1.30;;;0.47;;
23280;SDS011;11809;56.390;-3.266;2022-11-02T01:09:25;0.57;;;0.32;;
23280;SDS011;11809;56.390;-3.266;2022-11-02T01:11:52;0.85;;;0.40;;
23280;SDS011;11809;56.390;-3.266;2022-11-02T01:14:20;0.50;;;0.40;;
23280;SDS011;11809;56.390;-3.266;2022-11-02T01:16:47;0.50;;;0.40;;
23280;SDS011;11809;56.390;-3.266;2022-11-02T01:19:14;0.35;;;0.30;;
23280;SDS011;11809;56.390;-3.266;2022-11-02T01:21:41;0.60;;;0.30;;
23280;SDS011;11809;56.390;-3.266;2022-11-02T01:24:08;0.30;;;0.30;;
23280;SDS011;11809;56.390;-3.266;2022-11-02T01:26:35;0.68;;;0.38;;
23280;SDS011;11809;56.390;-3.266;2022-11-02T01:29:02;0.30;;;0.30;;
23280;SDS011;11809;56.390;-3.266;2022-11-02T01:31:29;0.55;;;0.22;;
23280;SDS011;11809;56.390;-3.266;2022-11-02T01:33:56;0.32;;;0.30;;
23280;SDS011;11809;56.390;-3.266;2022-11-02T01:36:23;0.40;;;0.30;;
23280;SDS011;11809;56.390;-3.266;2022-11-02T01:38:50;1.08;;;0.43;;
23280;SDS011;11809;56.390;-3.266;2022-11-02T01:41:17;1.02;;;0.30;;
23280;SDS011;11809;56.390;-3.266;2022-11-02T01:43:45;1.08;;;0.20;;
23280;SDS011;11809;56.390;-3.266;2022-11-02T01:46:16;0.30;;;0.28;;
23280;SDS011;11809;56.390;-3.266;2022-11-02T01:49:02;0.60;;;0.43;;
23280;SDS011;11809;56.390;-3.266;2022-11-02T01:51:44;0.82;;;0.20;;
23280;SDS011;11809;56.390;-3.266;2022-11-02T01:54:16;0.75;;;0.25;;
23280;SDS011;11809;56.390;-3.266;2022-11-02T01:56:48;2.33;;;0.32;;
23280;SDS011;11809;56.390;-3.266;2022-11-02T01:59:22;0.20;;;0.20;;
23280;SDS011;11809;56.390;-3.266;2022-11-02T02:01:59;0.47;;;0.20;;
23280;SDS011;11809;56.390;-3.266;2022-11-02T02:04:26;1.20;;;0.30;;
23280;SDS011;11809;56.390;-3.266;2022-11-02T02:06:54;1.13;;;0.20;;
23280;SDS011;11809;56.390;-3.266;2022-11-02T02:09:23;2.05;;;0.30;;
23280;SDS011;11809;56.390;-3.266;2022-11-02T02:11:52;0.20;;;0.10;;
23280;SDS011;11809;56.390;-3.266;2022-11-02T02:14:19;0.40;;;0.30;;
23280;SDS011;11809;56.390;-3.266;2022-11-02T02:16:53;0.30;;;0.28;;
23280;SDS011;11809;56.390;-3.266;2022-11-02T02:19:40;0.47;;;0.30;;
23280;SDS011;11809;56.390;-3.266;2022-11-02T02:31:32;0.75;;;0.20;;
23280;SDS011;11809;56.390;-3.266;2022-11-02T02:36:22;0.38;;;0.20;;
23280;SDS011;11809;56.390;-3.266;2022-11-02T02:39:00;0.40;;;0.28;;
23280;SDS011;11809;56.390;-3.266;2022-11-02T02:41:38;0.38;;;0.20;;
23280;SDS011;11809;56.390;-3.266;2022-11-02T02:44:09;0.70;;;0.40;;
23280;SDS011;11809;56.390;-3.266;2022-11-02T02:46:44;0.10;;;0.10;;
23280;SDS011;11809;56.390;-3.266;2022-11-02T02:49:24;0.40;;;0.20;;
23280;SDS011;11809;56.390;-3.266;2022-11-02T02:51:55;1.40;;;0.20;;
23280;SDS011;11809;56.390;-3.266;2022-11-02T02:54:29;0.75;;;0.20;;
23280;SDS011;11809;56.390;-3.266;2022-11-02T02:57:02;0.32;;;0.30;;
23280;SDS011;11809;56.390;-3.266;2022-11-02T02:59:41;2.78;;;0.30;;
23280;SDS011;11809;56.390;-3.266;2022-11-02T03:02:32;0.73;;;0.10;;
23280;SDS011;11809;56.390;-3.266;2022-11-02T03:04:59;0.20;;;0.10;;
23280;SDS011;11809;56.390;-3.266;2022-11-02T03:07:30;0.20;;;0.15;;
23280;SDS011;11809;56.390;-3.266;2022-11-02T03:10:06;0.30;;;0.20;;
23280;SDS011;11809;56.390;-3.266;2022-11-02T03:12:38;0.52;;;0.20;;
23280;SDS011;11809;56.390;-3.266;2022-11-02T03:20:25;0.55;;;0.20;;
23280;SDS011;11809;56.390;-3.266;2022-11-02T03:23:13;0.40;;;0.20;;
23280;SDS011;11809;56.390;-3.266;2022-11-02T03:25:52;0.20;;;0.20;;
23280;SDS011;11809;56.390;-3.266;2022-11-02T03:34:03;0.68;;;0.20;;
23280;SDS011;11809;56.390;-3.266;2022-11-02T03:36:50;0.50;;;0.17;;
23280;SDS011;11809;56.390;-3.266;2022-11-02T03:39:26;0.30;;;0.30;;
23280;SDS011;11809;56.390;-3.266;2022-11-02T03:41:59;0.20;;;0.20;;
23280;SDS011;11809;56.390;-3.266;2022-11-02T03:44:29;0.88;;;0.30;;
23280;SDS011;11809;56.390;-3.266;2022-11-02T03:46:59;1.13;;;0.30;;
23280;SDS011;11809;56.390;-3.266;2022-11-02T03:49:28;0.40;;;0.20;;
23280;SDS011;11809;56.390;-3.266;2022-11-02T03:51:58;0.10;;;0.10;;
23280;SDS011;11809;56.390;-3.266;2022-11-02T03:56:58;0.85;;;0.20;;
23280;SDS011;11809;56.390;-3.266;2022-11-02T03:59:49;0.25;;;0.20;;
23280;SDS011;11809;56.390;-3.266;2022-11-02T04:02:16;2.03;;;0.20;;
23280;SDS011;11809;56.390;-3.266;2022-11-02T04:04:49;0.32;;;0.20;;
23280;SDS011;11809;56.390;-3.266;2022-11-02T04:07:18;0.77;;;0.30;;
23280;SDS011;11809;56.390;-3.266;2022-11-02T04:09:50;0.20;;;0.20;;
23280;SDS011;11809;56.390;-3.266;2022-11-02T04:12:17;0.32;;;0.20;;
23280;SDS011;11809;56.390;-3.266;2022-11-02T04:15:03;0.68;;;0.20;;
23280;SDS011;11809;56.390;-3.266;2022-11-02T04:17:30;0.25;;;0.10;;
23280;SDS011;11809;56.390;-3.266;2022-11-02T04:20:15;0.30;;;0.20;;
23280;SDS011;11809;56.390;-3.266;2022-11-02T04:22:42;0.95;;;0.20;;
23280;SDS011;11809;56.390;-3.266;2022-11-02T04:25:28;0.52;;;0.20;;
23280;SDS011;11809;56.390;-3.266;2022-11-02T04:27:55;0.40;;;0.20;;
23280;SDS011;11809;56.390;-3.266;2022-11-02T04:30:22;0.57;;;0.10;;
23280;SDS011;11809;56.390;-3.266;2022-11-02T04:32:49;0.93;;;0.17;;
23280;SDS011;11809;56.390;-3.266;2022-11-02T04:35:35;0.10;;;0.10;;
23280;SDS011;11809;56.390;-3.266;2022-11-02T04:38:03;0.47;;;0.25;;
23280;SDS011;11809;56.390;-3.266;2022-11-02T04:40:48;0.35;;;0.10;;
23280;SDS011;11809;56.390;-3.266;2022-11-02T04:43:35;1.15;;;0.20;;
23280;SDS011;11809;56.390;-3.266;2022-11-02T04:46:02;0.35;;;0.20;;
23280;SDS011;11809;56.390;-3.266;2022-11-02T04:48:29;0.60;;;0.30;;
23280;SDS011;11809;56.390;-3.266;2022-11-02T04:50:56;0.45;;;0.20;;
23280;SDS011;11809;56.390;-3.266;2022-11-02T04:53:23;2.08;;;0.20;;
23280;SDS011;11809;56.390;-3.266;2022-11-02T04:55:50;1.40;;;0.10;;
23280;SDS011;11809;56.390;-3.266;2022-11-02T04:58:17;0.50;;;0.17;;
23280;SDS011;11809;56.390;-3.266;2022-11-02T05:00:44;5.97;;;0.30;;
23280;SDS011;11809;56.390;-3.266;2022-11-02T05:03:11;1.70;;;0.30;;
23280;SDS011;11809;56.390;-3.266;2022-11-02T05:05:38;4.32;;;0.20;;
23280;SDS011;11809;56.390;-3.266;2022-11-02T05:08:05;0.15;;;0.10;;
23280;SDS011;11809;56.390;-3.266;2022-11-02T05:10:32;0.95;;;0.30;;
23280;SDS011;11809;56.390;-3.266;2022-11-02T05:12:59;1.65;;;0.20;;
23280;SDS011;11809;56.390;-3.266;2022-11-02T05:15:27;0.68;;;0.28;;
23280;SDS011;11809;56.390;-3.266;2022-11-02T05:17:54;2.45;;;0.20;;
23280;SDS011;11809;56.390;-3.266;2022-11-02T05:20:21;0.52;;;0.20;;
23280;SDS011;11809;56.390;-3.266;2022-11-02T05:22:48;0.52;;;0.10;;
23280;SDS011;11809;56.390;-3.266;2022-11-02T05:25:14;0.40;;;0.13;;
23280;SDS011;11809;56.390;-3.266;2022-11-02T05:27:41;1.23;;;0.20;;
23280;SDS011;11809;56.390;-3.266;2022-11-02T05:30:08;0.30;;;0.20;;
23280;SDS011;11809;56.390;-3.266;2022-11-02T05:32:35;1.40;;;0.20;;
23280;SDS011;11809;56.390;-3.266;2022-11-02T05:35:02;0.40;;;0.22;;
23280;SDS011;11809;56.390;-3.266;2022-11-02T05:37:30;0.65;;;0.20;;
23280;SDS011;11809;56.390;-3.266;2022-11-02T05:39:56;12.10;;;0.73;;
23280;SDS011;11809;56.390;-3.266;2022-11-02T05:42:24;0.57;;;0.22;;
23280;SDS011;11809;56.390;-3.266;2022-11-02T05:44:54;4.70;;;0.30;;
23280;SDS011;11809;56.390;-3.266;2022-11-02T05:47:20;12.98;;;0.30;;
23280;SDS011;11809;56.390;-3.266;2022-11-02T05:49:47;3.70;;;0.73;;
23280;SDS011;11809;56.390;-3.266;2022-11-02T05:52:14;2.80;;;0.35;;
23280;SDS011;11809;56.390;-3.266;2022-11-02T05:54:41;2.65;;;0.32;;
23280;SDS011;11809;56.390;-3.266;2022-11-02T05:57:08;7.78;;;0.80;;
23280;SDS011;11809;56.390;-3.266;2022-11-02T05:59:35;1.83;;;0.30;;
23280;SDS011;11809;56.390;-3.266;2022-11-02T06:02:02;3.20;;;0.30;;
23280;SDS011;11809;56.390;-3.266;2022-11-02T06:04:29;0.77;;;0.40;;
23280;SDS011;11809;56.390;-3.266;2022-11-02T06:06:56;2.33;;;0.32;;
23280;SDS011;11809;56.390;-3.266;2022-11-02T06:09:23;6.45;;;0.40;;
23280;SDS011;11809;56.390;-3.266;2022-11-02T06:11:49;3.28;;;0.38;;
23280;SDS011;11809;56.390;-3.266;2022-11-02T06:14:16;0.85;;;0.30;;
23280;SDS011;11809;56.390;-3.266;2022-11-02T06:16:43;4.22;;;0.40;;
23280;SDS011;11809;56.390;-3.266;2022-11-02T06:19:10;2.28;;;0.40;;
23280;SDS011;11809;56.390;-3.266;2022-11-02T06:21:37;4.13;;;0.38;;
23280;SDS011;11809;56.390;-3.266;2022-11-02T06:24:09;1.77;;;0.55;;
23280;SDS011;11809;56.390;-3.266;2022-11-02T06:26:36;4.38;;;0.40;;
23280;SDS011;11809;56.390;-3.266;2022-11-02T06:29:03;5.18;;;0.47;;
23280;SDS011;11809;56.390;-3.266;2022-11-02T06:31:30;7.88;;;1.00;;
23280;SDS011;11809;56.390;-3.266;2022-11-02T06:33:57;2.85;;;0.50;;
23280;SDS011;11809;56.390;-3.266;2022-11-02T06:36:24;2.58;;;0.43;;
23280;SDS011;11809;56.390;-3.266;2022-11-02T06:38:50;5.97;;;0.60;;
23280;SDS011;11809;56.390;-3.266;2022-11-02T06:41:17;5.57;;;0.60;;
23280;SDS011;11809;56.390;-3.266;2022-11-02T06:43:44;5.47;;;0.60;;
23280;SDS011;11809;56.390;-3.266;2022-11-02T06:46:11;3.08;;;0.50;;
23280;SDS011;11809;56.390;-3.266;2022-11-02T06:48:38;8.63;;;0.60;;
23280;SDS011;11809;56.390;-3.266;2022-11-02T06:51:05;2.58;;;0.40;;
23280;SDS011;11809;56.390;-3.266;2022-11-02T06:53:32;0.82;;;0.30;;
23280;SDS011;11809;56.390;-3.266;2022-11-02T06:55:59;0.55;;;0.32;;
23280;SDS011;11809;56.390;-3.266;2022-11-02T06:58:26;2.00;;;0.35;;
23280;SDS011;11809;56.390;-3.266;2022-11-02T07:00:57;0.88;;;0.47;;
23280;SDS011;11809;56.390;-3.266;2022-11-02T07:03:26;2.00;;;0.60;;
23280;SDS011;11809;56.390;-3.266;2022-11-02T07:05:53;9.63;;;0.80;;
23280;SDS011;11809;56.390;-3.266;2022-11-02T07:08:20;2.08;;;0.30;;
23280;SDS011;11809;56.390;-3.266;2022-11-02T07:10:47;7.68;;;0.55;;
23280;SDS011;11809;56.390;-3.266;2022-11-02T07:13:15;5.07;;;0.60;;
23280;SDS011;11809;56.390;-3.266;2022-11-02T07:15:42;3.75;;;0.75;;
23280;SDS011;11809;56.390;-3.266;2022-11-02T07:18:09;2.88;;;0.73;;
23280;SDS011;11809;56.390;-3.266;2022-11-02T07:20:38;3.88;;;0.90;;
23280;SDS011;11809;56.390;-3.266;2022-11-02T07:23:05;3.63;;;0.90;;
23280;SDS011;11809;56.390;-3.266;2022-11-02T07:25:32;3.20;;;1.00;;
23280;SDS011;11809;56.390;-3.266;2022-11-02T07:27:59;7.00;;;1.33;;
23280;SDS011;11809;56.390;-3.266;2022-11-02T07:30:31;7.30;;;1.20;;
23280;SDS011;11809;56.390;-3.266;2022-11-02T07:32:59;8.52;;;1.40;;
23280;SDS011;11809;56.390;-3.266;2022-11-02T07:35:27;5.35;;;1.55;;
23280;SDS011;11809;56.390;-3.266;2022-11-02T07:37:58;5.38;;;1.00;;
23280;SDS011;11809;56.390;-3.266;2022-11-02T07:40:27;4.35;;;1.35;;
23280;SDS011;11809;56.390;-3.266;2022-11-02T07:42:55;3.95;;;1.10;;
23280;SDS011;11809;56.390;-3.266;2022-11-02T07:45:23;4.18;;;0.93;;
23280;SDS011;11809;56.390;-3.266;2022-11-02T07:47:50;4.22;;;0.90;;
23280;SDS011;11809;56.390;-3.266;2022-11-02T07:50:19;2.80;;;1.13;;
23280;SDS011;11809;56.390;-3.266;2022-11-02T07:52:51;2.70;;;1.05;;
23280;SDS011;11809;56.390;-3.266;2022-11-02T07:55:21;2.92;;;0.70;;
23280;SDS011;11809;56.390;-3.266;2022-11-02T08:00:25;1.90;;;0.80;;
23280;SDS011;11809;56.390;-3.266;2022-11-02T08:02:57;1.77;;;0.63;;
23280;SDS011;11809;56.390;-3.266;2022-11-02T08:10:24;4.65;;;0.93;;
23280;SDS011;11809;56.390;-3.266;2022-11-02T08:12:52;3.03;;;0.80;;
23280;SDS011;11809;56.390;-3.266;2022-11-02T08:15:20;0.93;;;0.50;;
23280;SDS011;11809;56.390;-3.266;2022-11-02T08:17:47;2.55;;;0.60;;
23280;SDS011;11809;56.390;-3.266;2022-11-02T08:20:24;1.17;;;0.50;;
23280;SDS011;11809;56.390;-3.266;2022-11-02T08:22:51;2.92;;;0.77;;
23280;SDS011;11809;56.390;-3.266;2022-11-02T08:25:18;1.83;;;0.55;;
23280;SDS011;11809;56.390;-3.266;2022-11-02T08:27:45;2.15;;;0.60;;
23280;SDS011;11809;56.390;-3.266;2022-11-02T08:30:12;1.55;;;0.50;;
23280;SDS011;11809;56.390;-3.266;2022-11-02T08:32:39;8.75;;;0.70;;
23280;SDS011;11809;56.390;-3.266;2022-11-02T08:35:06;1.63;;;0.60;;
23280;SDS011;11809;56.390;-3.266;2022-11-02T08:37:33;1.88;;;0.55;;
23280;SDS011;11809;56.390;-3.266;2022-11-02T08:40:00;1.55;;;0.63;;
23280;SDS011;11809;56.390;-3.266;2022-11-02T08:42:27;1.35;;;0.60;;
23280;SDS011;11809;56.390;-3.266;2022-11-02T08:44:54;1.05;;;0.50;;
23280;SDS011;11809;56.390;-3.266;2022-11-02T08:47:21;1.60;;;0.50;;
23280;SDS011;11809;56.390;-3.266;2022-11-02T08:49:49;1.98;;;0.52;;
23280;SDS011;11809;56.390;-3.266;2022-11-02T08:52:17;1.27;;;0.40;;
23280;SDS011;11809;56.390;-3.266;2022-11-02T08:54:44;0.63;;;0.52;;
23280;SDS011;11809;56.390;-3.266;2022-11-02T08:57:11;1.10;;;0.60;;
23280;SDS011;11809;56.390;-3.266;2022-11-02T08:59:38;1.08;;;0.55;;
23280;SDS011;11809;56.390;-3.266;2022-11-02T09:02:05;0.88;;;0.50;;
23280;SDS011;11809;56.390;-3.266;2022-11-02T09:04:32;1.38;;;0.60;;
23280;SDS011;11809;56.390;-3.266;2022-11-02T09:06:59;1.15;;;0.70;;
23280;SDS011;11809;56.390;-3.266;2022-11-02T09:09:27;2.38;;;0.50;;
23280;SDS011;11809;56.390;-3.266;2022-11-02T09:11:54;1.67;;;0.57;;
23280;SDS011;11809;56.390;-3.266;2022-11-02T09:14:21;1.15;;;0.60;;
23280;SDS011;11809;56.390;-3.266;2022-11-02T09:16:48;1.10;;;0.50;;
23280;SDS011;11809;56.390;-3.266;2022-11-02T09:19:15;1.23;;;0.47;;
23280;SDS011;11809;56.390;-3.266;2022-11-02T09:21:42;1.58;;;0.63;;
23280;SDS011;11809;56.390;-3.266;2022-11-02T09:24:09;1.58;;;0.63;;
23280;SDS011;11809;56.390;-3.266;2022-11-02T09:26:36;2.17;;;0.60;;
23280;SDS011;11809;56.390;-3.266;2022-11-02T09:29:03;1.30;;;0.50;;
23280;SDS011;11809;56.390;-3.266;2022-11-02T09:31:30;0.90;;;0.50;;
23280;SDS011;11809;56.390;-3.266;2022-11-02T09:33:58;0.60;;;0.60;;
23280;SDS011;11809;56.390;-3.266;2022-11-02T09:36:24;1.10;;;0.50;;
23280;SDS011;11809;56.390;-3.266;2022-11-02T09:38:51;1.55;;;0.63;;
23280;SDS011;11809;56.390;-3.266;2022-11-02T09:46:45;1.52;;;0.40;;
23280;SDS011;11809;56.390;-3.266;2022-11-02T09:49:23;1.77;;;0.60;;
23280;SDS011;11809;56.390;-3.266;2022-11-02T09:51:55;1.70;;;0.55;;
23280;SDS011;11809;56.390;-3.266;2022-11-02T09:54:29;1.17;;;0.52;;
23280;SDS011;11809;56.390;-3.266;2022-11-02T09:57:03;1.00;;;0.47;;
23280;SDS011;11809;56.390;-3.266;2022-11-02T09:59:34;3.28;;;0.82;;
23280;SDS011;11809;56.390;-3.266;2022-11-02T10:10:40;4.50;;;0.60;;
23280;SDS011;11809;56.390;-3.266;2022-11-02T10:17:09;5.07;;;0.70;;
23280;SDS011;11809;56.390;-3.266;2022-11-02T10:19:20;1.15;;;0.50;;
23280;SDS011;11809;56.390;-3.266;2022-11-02T10:21:55;0.98;;;0.50;;
23280;SDS011;11809;56.390;-3.266;2022-11-02T10:24:34;2.40;;;0.52;;
23280;SDS011;11809;56.390;-3.266;2022-11-02T10:27:16;0.50;;;0.40;;
23280;SDS011;11809;56.390;-3.266;2022-11-02T10:32:37;1.90;;;0.50;;
23280;SDS011;11809;56.390;-3.266;2022-11-02T10:52:49;0.57;;;0.35;;
23280;SDS011;11809;56.390;-3.266;2022-11-02T10:55:31;1.92;;;0.50;;
23280;SDS011;11809;56.390;-3.266;2022-11-02T10:58:01;3.10;;;0.50;;
23280;SDS011;11809;56.390;-3.266;2022-11-02T11:00:31;1.30;;;0.50;;
23280;SDS011;11809;56.390;-3.266;2022-11-02T11:03:04;2.03;;;0.55;;
23280;SDS011;11809;56.390;-3.266;2022-11-02T11:05:58;3.42;;;0.75;;
23280;SDS011;11809;56.390;-3.266;2022-11-02T11:14:06;0.50;;;0.50;;
23280;SDS011;11809;56.390;-3.266;2022-11-02T11:17:03;1.08;;;0.50;;
23280;SDS011;11809;56.390;-3.266;2022-11-02T11:20:04;1.38;;;0.60;;
23280;SDS011;11809;56.390;-3.266;2022-11-02T11:22:46;0.60;;;0.30;;
23280;SDS011;11809;56.390;-3.266;2022-11-02T11:25:41;1.98;;;0.50;;
23280;SDS011;11809;56.390;-3.266;2022-11-02T11:28:55;1.65;;;0.50;;
23280;SDS011;11809;56.390;-3.266;2022-11-02T11:31:07;1.63;;;0.50;;
23280;SDS011;11809;56.390;-3.266;2022-11-02T11:33:42;1.75;;;0.50;;
23280;SDS011;11809;56.390;-3.266;2022-11-02T11:36:30;1.27;;;0.60;;
23280;SDS011;11809;56.390;-3.266;2022-11-02T11:38:59;1.38;;;0.47;;
23280;SDS011;11809;56.390;-3.266;2022-11-02T11:41:47;1.42;;;0.47;;
23280;SDS011;11809;56.390;-3.266;2022-11-02T11:44:14;1.38;;;0.40;;
23280;SDS011;11809;56.390;-3.266;2022-11-02T11:46:42;1.77;;;0.50;;
23280;SDS011;11809;56.390;-3.266;2022-11-02T11:49:23;1.52;;;0.65;;
23280;SDS011;11809;56.390;-3.266;2022-11-02T11:52:17;1.30;;;0.45;;
23280;SDS011;11809;56.390;-3.266;2022-11-02T11:54:53;1.90;;;0.60;;
23280;SDS011;11809;56.390;-3.266;2022-11-02T11:59:55;1.02;;;0.50;;
23280;SDS011;11809;56.390;-3.266;2022-11-02T12:02:29;1.97;;;0.60;;
23280;SDS011;11809;56.390;-3.266;2022-11-02T12:05:20;1.90;;;0.50;;
23280;SDS011;11809;56.390;-3.266;2022-11-02T12:08:03;2.30;;;0.57;;
23280;SDS011;11809;56.390;-3.266;2022-11-02T12:10:38;2.25;;;0.60;;
23280;SDS011;11809;56.390;-3.266;2022-11-02T12:13:26;1.73;;;0.50;;
23280;SDS011;11809;56.390;-3.266;2022-11-02T12:19:24;0.95;;;0.45;;
23280;SDS011;11809;56.390;-3.266;2022-11-02T12:25:15;0.93;;;0.40;;
23280;SDS011;11809;56.390;-3.266;2022-11-02T12:31:34;1.10;;;0.50;;
23280;SDS011;11809;56.390;-3.266;2022-11-02T12:36:56;1.27;;;0.52;;
23280;SDS011;11809;56.390;-3.266;2022-11-02T12:42:34;2.45;;;0.40;;
23280;SDS011;11809;56.390;-3.266;2022-11-02T12:56:19;0.52;;;0.38;;
23280;SDS011;11809;56.390;-3.266;2022-11-02T12:58:50;0.93;;;0.40;;
23280;SDS011;11809;56.390;-3.266;2022-11-02T13:04:08;2.20;;;0.50;;
23280;SDS011;11809;56.390;-3.266;2022-11-02T13:06:46;0.77;;;0.52;;
23280;SDS011;11809;56.390;-3.266;2022-11-02T13:12:06;0.70;;;0.40;;
23280;SDS011;11809;56.390;-3.266;2022-11-02T13:14:41;2.17;;;0.60;;
23280;SDS011;11809;56.390;-3.266;2022-11-02T13:20:08;1.40;;;0.50;;
23280;SDS011;11809;56.390;-3.266;2022-11-02T13:22:47;1.50;;;0.70;;
23280;SDS011;11809;56.390;-3.266;2022-11-02T13:25:20;0.73;;;0.40;;
23280;SDS011;11809;56.390;-3.266;2022-11-02T13:27:57;2.33;;;0.43;;
23280;SDS011;11809;56.390;-3.266;2022-11-02T13:30:38;0.70;;;0.35;;
23280;SDS011;11809;56.390;-3.266;2022-11-02T13:35:54;2.40;;;0.70;;
23280;SDS011;11809;56.390;-3.266;2022-11-02T13:41:05;1.58;;;0.60;;
23280;SDS011;11809;56.390;-3.266;2022-11-02T13:49:36;1.42;;;0.50;;
23280;SDS011;11809;56.390;-3.266;2022-11-02T13:55:32;1.85;;;0.68;;
23280;SDS011;11809;56.390;-3.266;2022-11-02T13:58:54;3.17;;;0.77;;
23280;SDS011;11809;56.390;-3.266;2022-11-02T14:01:04;1.00;;;0.60;;
23280;SDS011;11809;56.390;-3.266;2022-11-02T14:03:48;1.48;;;0.50;;
23280;SDS011;11809;56.390;-3.266;2022-11-02T14:06:27;1.83;;;0.60;;
23280;SDS011;11809;56.390;-3.266;2022-11-02T14:11:35;2.42;;;0.70;;
23280;SDS011;11809;56.390;-3.266;2022-11-02T14:16:44;1.00;;;0.50;;
23280;SDS011;11809;56.390;-3.266;2022-11-02T14:26:58;9.05;;;1.70;;
23280;SDS011;11809;56.390;-3.266;2022-11-02T14:29:37;8.00;;;1.08;;
23280;SDS011;11809;56.390;-3.266;2022-11-02T14:37:43;4.60;;;0.70;;
23280;SDS011;11809;56.390;-3.266;2022-11-02T14:43:24;3.70;;;0.50;;
23280;SDS011;11809;56.390;-3.266;2022-11-02T14:46:42;5.65;;;0.63;;
23280;SDS011;11809;56.390;-3.266;2022-11-02T14:54:31;4.68;;;0.63;;
23280;SDS011;11809;56.390;-3.266;2022-11-02T14:57:05;2.60;;;0.73;;
23280;SDS011;11809;56.390;-3.266;2022-11-02T14:59:44;4.65;;;1.20;;
23280;SDS011;11809;56.390;-3.266;2022-11-02T15:05:07;1.83;;;0.77;;
23280;SDS011;11809;56.390;-3.266;2022-11-02T15:08:08;2.35;;;0.88;;
23280;SDS011;11809;56.390;-3.266;2022-11-02T15:10:56;3.38;;;0.70;;
23280;SDS011;11809;56.390;-3.266;2022-11-02T15:13:34;3.70;;;0.80;;
23280;SDS011;11809;56.390;-3.266;2022-11-02T15:18:38;3.70;;;0.93;;
23280;SDS011;11809;56.390;-3.266;2022-11-02T15:23:41;4.30;;;0.90;;
23280;SDS011;11809;56.390;-3.266;2022-11-02T15:31:53;7.15;;;0.68;;
23280;SDS011;11809;56.390;-3.266;2022-11-02T15:37:23;2.25;;;0.60;;
23280;SDS011;11809;56.390;-3.266;2022-11-02T15:39:55;1.55;;;0.52;;
23280;SDS011;11809;56.390;-3.266;2022-11-02T16:01:31;1.75;;;0.50;;
23280;SDS011;11809;56.390;-3.266;2022-11-02T16:03:59;1.77;;;0.47;;
23280;SDS011;11809;56.390;-3.266;2022-11-02T16:06:39;4.25;;;0.70;;
23280;SDS011;11809;56.390;-3.266;2022-11-02T16:12:28;1.73;;;0.40;;
23280;SDS011;11809;56.390;-3.266;2022-11-02T16:17:27;5.50;;;0.80;;
23280;SDS011;11809;56.390;-3.266;2022-11-02T16:25:51;3.90;;;0.60;;
23280;SDS011;11809;56.390;-3.266;2022-11-02T16:28:27;2.58;;;0.70;;
23280;SDS011;11809;56.390;-3.266;2022-11-02T16:31:06;4.30;;;1.10;;
23280;SDS011;11809;56.390;-3.266;2022-11-02T16:33:52;2.33;;;0.73;;
23280;SDS011;11809;56.390;-3.266;2022-11-02T16:36:21;1.65;;;0.70;;
23280;SDS011;11809;56.390;-3.266;2022-11-02T16:39:00;4.60;;;0.93;;
23280;SDS011;11809;56.390;-3.266;2022-11-02T16:41:30;2.78;;;0.57;;
23280;SDS011;11809;56.390;-3.266;2022-11-02T16:44:09;7.57;;;1.27;;
23280;SDS011;11809;56.390;-3.266;2022-11-02T16:47:16;5.57;;;1.40;;
23280;SDS011;11809;56.390;-3.266;2022-11-02T16:52:30;6.80;;;0.88;;
23280;SDS011;11809;56.390;-3.266;2022-11-02T16:55:27;17.20;;;1.73;;
23280;SDS011;11809;56.390;-3.266;2022-11-02T16:58:13;7.93;;;1.30;;
23280;SDS011;11809;56.390;-3.266;2022-11-02T17:00:59;6.43;;;0.90;;
23280;SDS011;11809;56.390;-3.266;2022-11-02T17:03:31;8.25;;;1.17;;
23280;SDS011;11809;56.390;-3.266;2022-11-02T17:06:01;5.45;;;1.17;;
23280;SDS011;11809;56.390;-3.266;2022-11-02T17:08:34;7.32;;;1.20;;
23280;SDS011;11809;56.390;-3.266;2022-11-02T17:11:04;4.82;;;0.90;;
23280;SDS011;11809;56.390;-3.266;2022-11-02T17:13:34;4.95;;;1.10;;
23280;SDS011;11809;56.390;-3.266;2022-11-02T17:16:05;29.50;;;2.78;;
23280;SDS011;11809;56.390;-3.266;2022-11-02T17:18:35;32.47;;;3.03;;
23280;SDS011;11809;56.390;-3.266;2022-11-02T17:23:42;20.20;;;3.80;;
23280;SDS011;11809;56.390;-3.266;2022-11-02T17:29:02;5.70;;;2.05;;
23280;SDS011;11809;56.390;-3.266;2022-11-02T17:31:52;6.00;;;1.88;;
23280;SDS011;11809;56.390;-3.266;2022-11-02T17:34:26;8.48;;;2.00;;
23280;SDS011;11809;56.390;-3.266;2022-11-02T17:36:54;5.70;;;1.77;;
23280;SDS011;11809;56.390;-3.266;2022-11-02T17:39:21;4.93;;;1.40;;
23280;SDS011;11809;56.390;-3.266;2022-11-02T17:41:51;8.07;;;1.58;;
23280;SDS011;11809;56.390;-3.266;2022-11-02T17:44:39;3.93;;;1.40;;
23280;SDS011;11809;56.390;-3.266;2022-11-02T17:47:11;3.92;;;1.10;;
23280;SDS011;11809;56.390;-3.266;2022-11-02T17:49:39;4.55;;;1.30;;
23280;SDS011;11809;56.390;-3.266;2022-11-02T17:52:07;6.90;;;1.30;;
23280;SDS011;11809;56.390;-3.266;2022-11-02T17:54:38;4.68;;;1.10;;
23280;SDS011;11809;56.390;-3.266;2022-11-02T17:57:10;6.80;;;1.10;;
23280;SDS011;11809;56.390;-3.266;2022-11-02T17:59:42;6.47;;;1.10;;
23280;SDS011;11809;56.390;-3.266;2022-11-02T18:02:10;3.50;;;1.23;;
23280;SDS011;11809;56.390;-3.266;2022-11-02T18:04:39;9.93;;;1.02;;
23280;SDS011;11809;56.390;-3.266;2022-11-02T18:07:06;2.47;;;1.00;;
23280;SDS011;11809;56.390;-3.266;2022-11-02T18:09:33;3.80;;;1.20;;
23280;SDS011;11809;56.390;-3.266;2022-11-02T18:12:00;5.03;;;1.20;;
23280;SDS011;11809;56.390;-3.266;2022-11-02T18:14:27;4.60;;;1.30;;
23280;SDS011;11809;56.390;-3.266;2022-11-02T18:16:54;4.32;;;1.17;;
23280;SDS011;11809;56.390;-3.266;2022-11-02T18:19:22;3.17;;;1.00;;
23280;SDS011;11809;56.390;-3.266;2022-11-02T18:21:49;3.15;;;0.88;;
23280;SDS011;11809;56.390;-3.266;2022-11-02T18:24:16;4.63;;;1.30;;
23280;SDS011;11809;56.390;-3.266;2022-11-02T18:26:43;5.93;;;3.10;;
23280;SDS011;11809;56.390;-3.266;2022-11-02T18:29:12;13.02;;;5.47;;
23280;SDS011;11809;56.390;-3.266;2022-11-02T18:31:39;14.25;;;6.72;;